Weather observations for the past three days for
Walterboro Lowcountry Regional Airport
Metric (Imperial)
Date Time (edt) Wind (kph) Vis. (km) Weather Sky Cond. Temperature (ºC) Relative Humidity Wind Chill (°C) Heat Index (°C) Pressure Precipitation (cm)
Air Dwpt 6 hour altimeter (cm) sea level (mb) 1 hr 3 hr 6 hr
Max. Min.
07 13:15 SW 28 G 41 16.09 Partly Cloudy SCT110 26 17 58% 27 75.79 0.0
07 12:55 SW 28 16.09 Fair CLR 25 17 61% 26 75.82 0.0
07 12:35 SW 26 G 37 16.09 Partly Cloudy SCT120 25 17 61% 26 75.82 0.0
07 12:15 SW 22 G 37 16.09 Fair CLR 24 17 65% 25 75.87 0.0
07 11:55 SW 20 G 30 16.09 Fair CLR 23 17 69% 75.92 0.0
07 11:35 SW 19 16.09 Partly Cloudy SCT100 22 16 69% 75.92 0.0
07 11:15 SW 15 16.09 Partly Cloudy SCT090 22 16 69% 75.95 0.0
07 10:55 W 17 16.09 Partly Cloudy SCT090 22 16 69% 75.95 0.0
07 10:35 SW 19 16.09 Fair CLR 22 16 69% 75.95 0.0
07 10:15 SW 13 16.09 Partly Cloudy SCT095 SCT120 22 15 65% 75.9 0.0
07 09:55 SW 17 G 31 16.09 Fair CLR 21 15 69% 75.9 0.0
07 09:35 SW 30 G 35 16.09 Fair CLR 22 14 61% 75.9 0.0
07 09:15 SW 20 G 31 16.09 Fair CLR 22 14 61% 75.82 0.0
07 08:55 SW 26 G 41 16.09 Fair CLR 21 15 69% 75.82 0.0
07 08:35 S 31 G 41 16.09 Fair CLR 20 16 78% 75.77 0.0
07 08:15 SW 22 16.09 Fair CLR 20 16 78% 75.84 0.0
07 07:55 SW 26 16.09 Partly Cloudy SCT120 20 17 83% 75.9 0.0 0.03
07 07:35 SW 26 G 39 16.09 Mostly Cloudy SCT070 SCT085 BKN110 20 17 83% 75.9 0.0 0.03
07 07:15 SW 13 16.09 Light Rain SCT070 BKN085 BKN110 20 18 88% 75.97 0.0 0.03
07 06:55 SW 15 11.27 Partly Cloudy SCT110 20 19 94% 76 0.0 0.05
07 06:35 SW 9 16.09 Light Rain BKN100 BKN120 20 18 88% 75.97 0.0 0.05
07 06:15 W 15 16.09 Light Rain OVC100 20 18 88% 76.07 0.0 0.03
07 05:55 W 15 11.27 Light Rain SCT065 SCT080 OVC100 21 18 83% 76.1 0.0
07 05:35 W 13 16.09 Light Rain SCT070 BKN090 OVC120 22 18 78% 76.12 0.0
07 05:15 W 11 16.09 Light Rain BKN070 OVC080 22 18 78% 76.05 0.0
07 04:55 W 11 16.09 Mostly Cloudy BKN080 BKN100 22 18 78% 76.02 0.0
07 04:35 SW 13 16.09 Partly Cloudy SCT095 22 18 78% 76 0.0
07 04:15 SW 13 16.09 Fair CLR 23 18 74% 75.97 0.0
07 03:55 SW 13 16.09 Partly Cloudy SCT075 23 18 74% 75.95 0.0
07 03:35 S 17 16.09 Partly Cloudy SCT075 23 18 74% 75.95 0.0
07 03:15 S 17 16.09 Fair CLR 23 18 74% 75.9 0.0
07 02:55 S 15 16.09 Fair CLR 23 18 74% 75.92 0.0
07 02:35 S 19 G 28 16.09 Fair CLR 23 18 74% 75.92 0.0
07 02:15 S 17 16.09 Fair CLR 23 18 74% 75.97 0.0
07 01:55 S 15 16.09 Fair CLR 23 18 74% 76.02 0.0
07 01:35 S 15 16.09 Partly Cloudy SCT110 23 18 74% 76.02 0.0
07 01:15 S 11 16.09 Partly Cloudy SCT110 23 18 74% 76.07 0.0
07 00:55 S 11 16.09 Fair CLR 23 18 74% 76.1 0.0
07 00:35 S 9 16.09 Fair CLR 23 18 74% 76.1 0.0
07 00:15 S 9 16.09 Fair CLR 23 17 69% 76.1 0.0
06 23:55 S 15 16.09 Fair CLR 23 17 69% 76.1 0.0
06 23:15 S 15 16.09 Fair CLR 23 17 69% 76.07 0.0
06 22:55 S 17 16.09 Fair CLR 22 17 73% 76.05 0.0
06 22:35 S 19 16.09 Fair CLR 23 17 69% 76.05 0.0
06 22:15 S 17 16.09 Fair CLR 23 17 69% 76.02 0.0
06 21:55 S 17 G 26 16.09 Fair CLR 23 18 74% 76.02 0.0
06 21:35 S 19 16.09 Fair CLR 23 18 74% 76.05 0.0
06 21:15 S 15 16.09 Fair CLR 23 18 74% 76.05 0.0
06 20:55 S 15 16.09 Fair CLR 23 18 74% 76.07 0.0
06 20:35 S 15 16.09 Fair CLR 24 18 69% 25 76.1 0.0
06 20:15 S 13 16.09 Fair CLR 24 18 69% 25 76.07 0.0
06 19:55 SE 13 16.09 Fair CLR 25 17 61% 26 76.05 0.0
06 19:35 S 15 16.09 Fair CLR 26 18 61% 27 76.05 0.0
06 18:55 S 19 16.09 Fair CLR 27 18 58% 28 76.05 0.0
06 18:35 S 19 16.09 Fair CLR 27 17 54% 28 76.05 0.0
06 18:15 S 17 16.09 Fair CLR 28 18 55% 29 76.05 0.0
06 17:35 S 15 16.09 Fair CLR 30 17 46% 30 76.02 0.0
06 17:15 S 19 G 28 16.09 Fair CLR 30 16 43% 30 76.02 0.0
06 16:55 SW 15 16.09 Fair CLR 30 16 43% 30 76.02 0.0
06 16:35 S 19 16.09 Fair CLR 31 16 40% 31 76.05 0.0
06 16:15 S 13 G 26 16.09 Fair CLR 30 15 40% 30 76.07 0.0
06 15:55 SW 15 16.09 Fair CLR 30 15 40% 30 76.1 0.0
06 15:35 S 22 16.09 Fair CLR 30 15 40% 30 76.12 0.0
06 15:15 SW 13 16.09 Fair CLR 29 15 43% 29 76.15 0.0
06 14:55 SW 11 16.09 Fair CLR 29 15 43% 29 76.17 0.0
06 14:35 W 15 G 28 16.09 Fair CLR 30 15 40% 30 76.2 0.0
06 14:15 S 19 G 26 16.09 Fair CLR 30 15 40% 30 76.2 0.0
06 13:55 S 17 16.09 Fair CLR 28 15 45% 28 76.25 0.0
06 13:35 SW 19 16.09 Fair CLR 27 15 48% 27 76.28 0.0
06 13:15 SW 17 16.09 Fair CLR 27 15 48% 27 76.3 0.0
06 12:55 S 17 16.09 Fair CLR 26 15 51% 27 76.3 0.0
06 12:35 SW 17 G 26 16.09 Fair CLR 26 15 51% 27 76.3 0.0
06 12:15 S 17 16.09 Fair CLR 26 15 51% 27 76.33 0.0
06 11:55 S 17 16.09 Fair CLR 25 15 54% 26 76.3 0.0
06 11:35 S 17 16.09 Partly Cloudy SCT080 25 15 54% 26 76.35 0.0
06 11:15 SW 13 16.09 Fair CLR 25 15 54% 26 76.35 0.0
06 10:55 SW 11 16.09 Fair CLR 24 15 57% 25 76.33 0.0
06 10:35 W 17 16.09 Fair CLR 24 15 57% 25 76.33 0.0
06 10:15 SW 20 16.09 Fair CLR 25 14 51% 26 76.3 0.0
06 09:55 SW 22 16.09 Fair CLR 24 15 57% 25 76.3 0.0
06 09:35 SW 13 G 28 16.09 Fair CLR 22 15 65% 76.3 0.0
06 09:15 SW 19 G 28 16.09 Fair CLR 22 16 69% 76.3 0.0
06 08:55 SW 17 16.09 Fair CLR 21 16 73% 76.28 0.0
06 08:35 SW 13 16.09 Fair CLR 21 17 78% 76.28 0.0
06 07:55 S 7 16.09 Fair CLR 17 16 94% 76.25 0.0
06 07:35 Calm 16.09 Fair CLR 16 15 94% 76.25 0.0
06 07:15 Calm 16.09 Fair CLR 14 13 94% 76.23 0.0
06 06:55 Calm 16.09 Fair CLR 13 12 94% 76.23 0.0
06 06:35 Calm 16.09 Fair CLR 12 11 94% 76.23 0.0
06 06:15 Calm 16.09 Fair CLR 13 12 94% 76.23 0.0
06 05:55 E 6 16.09 Fair CLR 13 12 94% 76.23 0.0
06 05:35 Calm 16.09 Fair CLR 13 12 94% 76.23 0.0
06 05:15 Calm 16.09 Fair CLR 13 12 94% 76.2 0.0
06 04:55 Calm 16.09 Fair CLR 13 12 94% 76.23 0.0
06 04:35 Calm 16.09 Fair CLR 13 12 94% 76.2 0.0
06 04:15 Calm 16.09 Fair CLR 13 12 94% 76.23 0.0
06 03:55 Calm 16.09 Fair CLR 13 12 94% 76.23 0.0
06 03:35 Calm 16.09 Fair CLR 13 12 94% 76.23 0.0
06 03:15 Calm 16.09 Fair CLR 13 12 94% 76.2 0.0
06 02:55 Calm 16.09 Fair CLR 13 12 94% 76.23 0.0
06 02:35 E 6 16.09 Fair CLR 12 11 94% 76.23 0.0
06 02:15 Calm 16.09 Fair CLR 13 12 94% 76.28 0.0
06 01:55 Calm 16.09 Fair CLR 13 12 94% 76.25 0.0
06 01:35 Calm 16.09 Fair CLR 13 12 94% 76.25 0.0
06 01:15 E 7 16.09 Fair CLR 13 12 94% 76.25 0.0
06 00:50 Calm 16.09 Fair CLR 13 12 94% 76.28 0.0
06 00:35 E 6 16.09 Fair CLR 13 12 94% 76.28 0.0
06 00:15 Calm 16.09 Fair CLR 15 12 82% 76.3 0.0
05 23:55 Calm 16.09 Fair CLR 15 12 82% 76.3 0.0
05 23:35 Calm 16.09 Fair CLR 16 12 77% 76.3 0.0
05 23:15 SE 6 16.09 Fair CLR 16 12 77% 76.3 0.0
05 22:55 SE 6 16.09 Fair CLR 16 12 77% 76.3 0.0
05 22:35 SE 7 16.09 Fair CLR 16 12 77% 76.3 0.0
05 22:15 SE 6 16.09 Fair CLR 17 12 73% 76.3 0.0
05 21:55 SE 7 16.09 Fair CLR 17 12 73% 76.3 0.0
05 21:35 SE 7 16.09 Fair CLR 18 12 68% 76.28 0.0
05 21:15 SE 9 16.09 Fair CLR 18 12 68% 76.28 0.0
05 20:55 SE 7 16.09 Fair CLR 18 13 73% 76.28 0.0
05 20:35 SE 9 16.09 Fair CLR 20 13 64% 76.28 0.0
05 20:15 SE 13 16.09 Fair CLR 20 13 64% 76.23 0.0
05 19:55 SE 11 16.09 Fair CLR 21 13 60% 76.25 0.0
05 19:35 SE 15 16.09 Fair CLR 21 12 57% 76.25 0.0
05 19:15 S 19 16.09 Fair CLR 22 11 50% 76.23 0.0
05 18:55 S 19 16.09 Fair CLR 22 11 50% 76.23 0.0
05 18:35 SE 22 G 28 16.09 Fair CLR 23 11 47% 76.23 0.0
05 18:15 SE 19 16.09 Fair CLR 23 11 47% 76.23 0.0
05 17:55 SE 20 G 28 16.09 Fair CLR 25 11 42% 26 76.23 0.0
05 17:35 SE 20 G 28 16.09 Fair CLR 25 11 42% 26 76.23 0.0
05 17:15 SE 17 G 30 16.09 Fair CLR 25 11 42% 26 76.23 0.0
05 16:55 SE 20 G 28 16.09 Fair CLR 26 11 39% 26 76.23 0.0
05 16:35 SE 17 G 31 16.09 Fair CLR 26 11 39% 26 76.23 0.0
05 16:15 SE 20 G 30 16.09 Fair CLR 26 12 42% 26 76.23 0.0
05 15:55 SE 20 G 30 16.09 Fair CLR 26 12 42% 26 76.25 0.0
05 15:35 S 20 16.09 Fair CLR 27 12 39% 27 76.28 0.0
05 15:15 S 13 16.09 Fair CLR 26 12 42% 26 76.3 0.0
05 14:55 S 17 G 30 16.09 Partly Cloudy SCT055 26 12 42% 26 76.33 0.0
05 14:35 SW 13 G 26 16.09 Partly Cloudy SCT055 26 12 42% 26 76.33 0.0
05 14:15 SE 15 16.09 Partly Cloudy SCT055 SCT065 26 12 42% 26 76.35 0.0
05 13:55 S 15 16.09 Partly Cloudy SCT065 26 12 42% 26 76.3 0.0
05 13:35 S 7 16.09 Fair CLR 26 11 39% 26 76.33 0.0
05 12:55 N 6 16.09 Mostly Cloudy BKN055 BKN065 26 11 39% 26 76.35 0.0
05 12:35 E 11 16.09 Partly Cloudy SCT049 SCT065 25 11 42% 26 76.38 0.0
05 12:15 S 15 16.09 Partly Cloudy SCT049 25 11 42% 26 76.4 0.0
05 11:55 S 11 16.09 Fair CLR 25 11 42% 26 76.4 0.0
05 11:35 SE 9 16.09 Fair CLR 24 12 47% 25 76.43 0.0
05 11:15 SE 11 16.09 Fair CLR 24 12 47% 25 76.4 0.0
05 10:55 SE 7 16.09 Fair CLR 23 12 50% 76.4 0.0
05 10:35 S 13 16.09 Fair CLR 22 12 53% 76.4 0.0
05 10:15 SW 15 16.09 Fair CLR 22 12 53% 76.4 0.0
05 09:55 S 11 16.09 Fair CLR 22 13 57% 76.4 0.0
05 09:30 S 9 16.09 Fair CLR 21 13 60% 76.4 0.0
05 09:15 S 6 16.09 Fair CLR 20 13 64% 76.4 0.0
05 08:35 NE 6 16.09 Fair CLR 17 13 77% 76.38 0.0
05 08:15 Calm 16.09 Fair CLR 15 13 88% 76.4 0.0
05 07:55 Calm 16.09 Fair CLR 13 11 88% 76.4 0.0
05 07:10 Calm 16.09 Fair CLR 10 8 88% 76.35 0.0
05 06:55 Calm 11.27 Fair CLR 9 8 94% 76.35 0.0
05 06:35 Calm 16.09 Fair CLR 9 8 94% 76.33 0.0
05 06:15 Calm 16.09 Fair CLR 10 8 88% 76.33 0.0
05 05:55 Calm 16.09 Fair CLR 10 8 88% 76.33 0.0
05 05:35 Calm 16.09 Fair CLR 10 8 88% 76.3 0.0
05 05:15 Calm 16.09 Fair CLR 10 8 88% 76.28 0.0
05 04:55 Calm 16.09 Fair CLR 10 10 100% 76.28 0.0
05 04:35 Calm 16.09 Fair CLR 10 9 94% 76.28 0.0
05 04:15 Calm 16.09 Fair CLR 11 10 94% 76.25 0.0
05 03:55 Calm 16.09 Fair CLR 11 10 94% 76.25 0.0
05 03:35 Calm 16.09 Fair CLR 11 10 94% 76.25 0.0
05 03:15 Calm 16.09 Fair CLR 12 10 88% 76.25 0.0
05 02:55 Calm 16.09 Fair CLR 12 10 88% 76.25 0.0
05 02:30 Calm 16.09 Fair CLR 12 11 94% 76.28 0.0
05 02:15 Calm 16.09 Fair CLR 12 10 88% 76.28 0.0
05 01:55 Calm 16.09 Fair CLR 12 10 88% 76.3 0.0
05 01:35 Calm 16.09 Fair CLR 12 10 88% 76.33 0.0
05 01:15 Calm 16.09 Fair CLR 12 10 88% 76.35 0.0
05 00:55 Calm 16.09 Fair CLR 12 10 88% 76.35 0.0
05 00:35 Calm 16.09 Fair CLR 13 10 82% 76.35 0.0
05 00:15 Calm 16.09 Fair CLR 12 10 88% 76.35 0.0
04 23:55 Calm 16.09 Fair CLR 12 10 88% 76.35 0.0
04 23:35 Calm 16.09 Fair CLR 13 10 82% 76.35 0.0
04 23:15 Calm 16.09 Fair CLR 13 9 77% 76.35 0.0
04 22:55 Calm 16.09 Fair CLR 15 9 68% 76.35 0.0
04 22:35 S 6 16.09 Fair CLR 16 9 63% 76.35 0.0
04 22:15 Calm 16.09 Fair CLR 16 9 63% 76.33 0.0
04 21:55 SE 6 16.09 Fair CLR 17 8 56% 76.33 0.0
04 21:35 S 7 16.09 Fair CLR 17 8 56% 76.33 0.0
04 21:15 S 9 16.09 Fair CLR 18 8 52% 76.33 0.0
04 20:55 S 9 16.09 Fair CLR 18 8 52% 76.33 0.0
04 20:35 S 11 16.09 Fair CLR 19 8 49% 76.3 0.0
04 20:15 S 9 16.09 Fair CLR 20 8 46% 76.3 0.0
04 19:55 S 15 16.09 Fair CLR 20 8 46% 76.28 0.0
04 19:35 S 17 16.09 Fair CLR 21 9 46% 76.28 0.0
04 19:15 SE 15 16.09 Fair CLR 21 9 46% 76.25 0.0
04 18:55 S 15 16.09 Fair CLR 22 8 41% 76.28 0.0
04 18:35 S 22 G 31 16.09 Fair CLR 23 8 38% 76.25 0.0
04 18:15 S 22 16.09 Fair CLR 23 8 38% 76.25 0.0
04 17:55 S 24 G 30 16.09 Fair CLR 23 8 38% 76.25 0.0
04 17:35 SE 19 G 35 16.09 Fair CLR 24 8 36% 25 76.25 0.0
04 17:15 S 20 16.09 Fair CLR 24 8 36% 25 76.25 0.0
04 16:55 S 26 16.09 Fair CLR 25 7 32% 25 76.25 0.0
04 16:35 S 20 16.09 Fair CLR 26 7 30% 26 76.23 0.0
04 16:15 S 19 G 28 16.09 Fair CLR 26 6 28% 26 76.25 0.0
04 15:55 S 15 G 30 16.09 Fair CLR 26 6 28% 26 76.25 0.0
04 15:35 SW 17 16.09 Fair CLR 26 6 28% 26 76.28 0.0
04 15:15 S 9 16.09 Fair CLR 25 5 28% 25 76.3 0.0
04 14:55 E 6 16.09 Fair CLR 25 5 28% 25 76.3 0.0
04 14:35 SW 11 16.09 Fair CLR 26 6 28% 26 76.33 0.0
04 14:15 Calm 16.09 Fair CLR 25 5 28% 25 76.33 0.0
04 13:55 SE 11 16.09 Fair CLR 25 5 28% 25 76.35 0.0
Date Time (edt) Wind (kph) Vis. (km) Weather Sky Cond. Air Dwpt Max. Min. Relative Humidity Wind Chill (°C) Heat Index (°C) altimeter (cm) sea level (mb) 1 hr 3 hr 6 hr
6 hour
Temperature (ºC) Pressure Precipitation (cm)